createdAt,value
2022-12-14T00:02:20.678Z,0.83
2022-12-14T00:04:48.899Z,0.77
2022-12-14T00:07:17.223Z,0.97
2022-12-14T00:09:47.103Z,1.19
2022-12-14T00:12:15.376Z,1.30
2022-12-14T00:14:43.610Z,1.08
2022-12-14T00:17:13.227Z,0.93
2022-12-14T00:19:41.450Z,1.25
2022-12-14T00:22:11.117Z,1.17
2022-12-14T00:24:39.543Z,1.30
2022-12-14T00:27:07.760Z,0.77
2022-12-14T00:29:36.628Z,1.03
2022-12-14T00:32:05.996Z,1.22
2022-12-14T00:34:35.646Z,1.36
2022-12-14T00:37:03.987Z,1.52
2022-12-14T00:39:32.286Z,1.45
2022-12-14T00:42:00.581Z,1.39
2022-12-14T00:44:28.884Z,1.30
2022-12-14T00:46:57.187Z,1.28
2022-12-14T00:49:25.437Z,1.23
2022-12-14T00:51:55.035Z,1.39
2022-12-14T00:54:23.891Z,1.40
2022-12-14T00:56:52.709Z,1.33
2022-12-14T00:59:26.960Z,1.37
2022-12-14T01:01:58.248Z,1.04
2022-12-14T01:04:26.635Z,1.19
2022-12-14T01:06:56.536Z,1.10
2022-12-14T01:09:27.409Z,1.35
2022-12-14T01:11:55.672Z,1.38
2022-12-14T01:14:24.279Z,1.37
2022-12-14T01:16:52.814Z,1.49
2022-12-14T01:19:21.012Z,1.54
2022-12-14T01:21:49.271Z,1.61
2022-12-14T01:24:18.918Z,1.62
2022-12-14T01:26:47.168Z,1.65
2022-12-14T01:29:16.324Z,1.56
2022-12-14T01:31:48.621Z,1.59
2022-12-14T01:34:17.921Z,1.62
2022-12-14T01:36:46.321Z,1.68
2022-12-14T01:39:18.361Z,1.47
2022-12-14T01:41:49.459Z,1.55
2022-12-14T01:44:57.514Z,1.53
2022-12-14T01:47:32.227Z,1.57
2022-12-14T01:50:09.458Z,1.62
2022-12-14T01:52:42.400Z,1.68
2022-12-14T01:55:16.109Z,1.72
2022-12-14T01:57:50.264Z,1.73
2022-12-14T02:00:18.606Z,1.76
2022-12-14T02:02:53.443Z,1.80
2022-12-14T02:05:23.781Z,1.75
2022-12-14T02:07:55.752Z,1.79
2022-12-14T02:10:29.241Z,1.72
2022-12-14T02:13:04.721Z,1.72
2022-12-14T02:15:33.849Z,1.73
2022-12-14T02:18:04.867Z,1.62
2022-12-14T02:20:41.992Z,1.63
2022-12-14T02:23:38.965Z,1.68
2022-12-14T02:26:47.766Z,1.69
2022-12-14T02:29:51.682Z,1.52
2022-12-14T02:32:53.981Z,1.26
2022-12-14T02:35:38.552Z,1.06
2022-12-14T02:38:22.015Z,1.16
2022-12-14T02:41:03.214Z,1.25
2022-12-14T02:43:36.435Z,1.34
2022-12-14T02:46:21.118Z,1.36
2022-12-14T02:48:55.066Z,1.31
2022-12-14T02:51:30.317Z,1.39
2022-12-14T02:54:03.455Z,1.38
2022-12-14T02:56:38.256Z,1.37
2022-12-14T02:59:10.434Z,1.16
2022-12-14T03:01:41.298Z,0.84
2022-12-14T03:04:10.041Z,0.38
2022-12-14T03:06:38.374Z,1.18
2022-12-14T03:09:14.467Z,0.92
2022-12-14T03:11:50.653Z,0.87
2022-12-14T03:14:25.497Z,0.60
2022-12-14T03:16:59.863Z,0.85
2022-12-14T03:19:35.409Z,1.01
2022-12-14T03:22:09.162Z,1.06
2022-12-14T03:24:42.822Z,1.13
2022-12-14T03:27:16.754Z,1.15
2022-12-14T03:29:50.622Z,1.03
2022-12-14T03:32:24.919Z,0.99
2022-12-14T03:34:58.601Z,0.88
2022-12-14T03:37:35.868Z,0.59
2022-12-14T03:40:04.712Z,0.66
2022-12-14T03:42:42.717Z,0.64
2022-12-14T03:45:22.885Z,0.50
2022-12-14T03:48:02.523Z,0.67
2022-12-14T03:50:38.726Z,0.69
2022-12-14T03:53:14.197Z,0.62
2022-12-14T03:55:49.157Z,0.49
2022-12-14T03:58:36.216Z,0.58
2022-12-14T04:01:12.145Z,0.61
2022-12-14T04:03:55.482Z,0.66
2022-12-14T04:06:34.281Z,0.64
2022-12-14T04:09:13.603Z,0.73
2022-12-14T04:12:06.921Z,0.78
2022-12-14T04:14:56.283Z,0.70
2022-12-14T04:17:47.725Z,0.60
2022-12-14T04:20:23.352Z,0.45
2022-12-14T04:22:58.428Z,0.24
2022-12-14T04:25:49.426Z,0.41
2022-12-14T04:28:41.093Z,0.20
2022-12-14T04:31:12.617Z,0.33
2022-12-14T04:33:49.258Z,0.23
2022-12-14T04:36:25.930Z,0.21
2022-12-14T04:39:01.287Z,0.28
2022-12-14T04:41:36.412Z,0.51
2022-12-14T04:44:12.491Z,0.67
2022-12-14T04:46:42.640Z,0.79
2022-12-14T04:49:20.492Z,0.91
2022-12-14T04:52:01.914Z,0.85
2022-12-14T04:54:43.697Z,0.71
2022-12-14T04:57:19.470Z,0.44
2022-12-14T04:59:48.699Z,0.65
2022-12-14T05:02:24.581Z,0.73
2022-12-14T05:05:02.346Z,0.87
2022-12-14T05:07:43.612Z,0.93
2022-12-14T05:10:20.202Z,0.97
2022-12-14T05:12:59.077Z,1.04
2022-12-14T05:15:33.111Z,1.06
2022-12-14T05:18:04.356Z,1.01
2022-12-14T05:20:33.012Z,1.00
2022-12-14T05:23:02.660Z,1.09
2022-12-14T05:25:31.064Z,1.09
2022-12-14T05:27:59.322Z,1.09
2022-12-14T05:30:27.753Z,1.07
2022-12-14T05:32:56.115Z,1.08
2022-12-14T05:35:24.428Z,1.11
2022-12-14T05:37:52.743Z,1.08
2022-12-14T05:40:22.387Z,1.12
2022-12-14T05:42:55.498Z,1.11
2022-12-14T05:45:24.294Z,1.08
2022-12-14T05:47:52.514Z,1.08
2022-12-14T05:50:20.815Z,0.50
2022-12-14T05:52:52.199Z,1.04
2022-12-14T05:55:21.786Z,1.08
2022-12-14T05:57:49.989Z,0.96
2022-12-14T06:00:18.857Z,1.13
2022-12-14T06:02:47.177Z,0.41
2022-12-14T06:05:15.845Z,1.08
2022-12-14T06:07:44.085Z,1.00
2022-12-14T06:10:12.393Z,0.99
2022-12-14T06:12:41.950Z,0.98
2022-12-14T06:15:11.398Z,0.94
2022-12-14T06:17:44.141Z,0.77
2022-12-14T06:20:13.377Z,0.82
2022-12-14T06:22:47.336Z,0.74
2022-12-14T06:25:16.253Z,0.63
2022-12-14T06:27:45.829Z,0.55
2022-12-14T06:30:14.947Z,0.59
2022-12-14T06:32:43.157Z,0.60
2022-12-14T06:35:11.535Z,0.54
2022-12-14T06:37:39.787Z,0.58
2022-12-14T06:40:09.826Z,0.59
2022-12-14T06:42:38.078Z,0.58
2022-12-14T06:45:09.024Z,0.59
2022-12-14T06:47:37.303Z,0.45
2022-12-14T06:50:06.633Z,0.57
2022-12-14T06:52:34.920Z,0.54
2022-12-14T06:55:03.208Z,0.54
2022-12-14T06:57:31.475Z,0.35
2022-12-14T06:59:59.759Z,0.52
2022-12-14T07:02:29.576Z,0.55
2022-12-14T07:04:58.098Z,0.48
2022-12-14T07:07:26.368Z,0.50
2022-12-14T07:09:54.643Z,0.46
2022-12-14T07:12:22.856Z,0.43
2022-12-14T07:14:51.813Z,0.45
2022-12-14T07:17:20.314Z,0.42
2022-12-14T07:19:50.134Z,0.51
2022-12-14T07:22:18.615Z,0.52
2022-12-14T07:24:46.933Z,-0.04
2022-12-14T07:27:15.202Z,0.47
2022-12-14T07:29:44.786Z,0.36
2022-12-14T07:32:13.102Z,0.41
2022-12-14T07:34:41.575Z,0.38
2022-12-14T07:37:11.240Z,0.39
2022-12-14T07:39:39.526Z,0.36
2022-12-14T07:42:07.926Z,0.38
2022-12-14T07:44:36.166Z,0.33
2022-12-14T07:47:04.385Z,0.30
2022-12-14T07:49:32.659Z,0.33
2022-12-14T07:52:00.892Z,0.33
2022-12-14T07:54:30.847Z,0.32
2022-12-14T07:56:59.183Z,0.38
2022-12-14T07:59:27.458Z,0.38
2022-12-14T08:01:56.691Z,0.42
2022-12-14T08:04:25.075Z,0.42
2022-12-14T08:06:53.851Z,0.47
2022-12-14T08:09:22.386Z,0.52
2022-12-14T08:11:52.071Z,0.54
2022-12-14T08:14:20.807Z,0.56
2022-12-14T08:16:50.720Z,0.62
2022-12-14T08:19:20.628Z,0.69
2022-12-14T08:21:48.954Z,0.73
2022-12-14T08:24:17.961Z,0.83
2022-12-14T08:26:49.047Z,0.83
2022-12-14T08:29:20.956Z,0.98
2022-12-14T08:31:49.251Z,1.28
2022-12-14T08:34:22.628Z,1.69
2022-12-14T08:36:51.375Z,2.11
2022-12-14T08:39:19.775Z,2.51
2022-12-14T08:41:48.328Z,2.88
2022-12-14T08:44:18.744Z,3.23
2022-12-14T08:46:48.705Z,3.60
2022-12-14T08:49:17.210Z,3.83
2022-12-14T08:51:45.530Z,4.16
2022-12-14T08:54:14.116Z,4.26
2022-12-14T08:56:42.494Z,4.55
2022-12-14T08:59:19.810Z,4.81
2022-12-14T09:02:00.173Z,4.90
2022-12-14T09:04:28.733Z,5.26
2022-12-14T09:06:57.517Z,5.40
2022-12-14T09:09:26.180Z,5.48
2022-12-14T09:11:54.453Z,5.78
2022-12-14T09:14:22.796Z,6.10
2022-12-14T09:16:51.163Z,6.25
2022-12-14T09:19:20.840Z,6.35
2022-12-14T09:21:49.090Z,6.64
2022-12-14T09:24:17.419Z,6.77
2022-12-14T09:26:46.947Z,6.82
2022-12-14T09:29:16.534Z,7.09
2022-12-14T09:31:45.573Z,7.24
2022-12-14T09:34:14.284Z,7.51
2022-12-14T09:36:44.116Z,7.78
2022-12-14T09:39:14.882Z,7.64
2022-12-14T09:42:01.325Z,7.57
2022-12-14T09:44:44.914Z,7.82
2022-12-14T09:47:17.745Z,8.12
2022-12-14T09:49:51.080Z,8.28
2022-12-14T09:52:24.186Z,8.48
2022-12-14T09:54:52.994Z,8.74
2022-12-14T09:57:30.105Z,8.83
2022-12-14T09:59:58.464Z,8.92
2022-12-14T10:02:41.408Z,8.96
2022-12-14T10:05:47.039Z,9.17
2022-12-14T10:08:26.076Z,9.32
2022-12-14T10:11:03.683Z,9.49
2022-12-14T10:13:45.798Z,9.38
2022-12-14T10:16:24.503Z,9.53
2022-12-14T10:19:13.684Z,9.67
2022-12-14T10:21:51.031Z,9.72
2022-12-14T10:24:24.770Z,9.86
2022-12-14T10:26:55.662Z,9.87
2022-12-14T10:29:32.479Z,9.88
2022-12-14T10:32:13.761Z,9.66
2022-12-14T10:34:44.568Z,9.55
2022-12-14T10:37:23.553Z,9.67
2022-12-14T10:40:12.455Z,9.80
2022-12-14T10:42:57.409Z,9.74
2022-12-14T10:45:41.533Z,10.00
2022-12-14T10:48:42.194Z,10.04
2022-12-14T10:51:14.147Z,9.83
2022-12-14T10:53:48.849Z,9.78
2022-12-14T10:56:24.314Z,9.84
2022-12-14T10:59:26.596Z,9.79
2022-12-14T11:02:02.753Z,9.87
2022-12-14T11:04:35.843Z,9.61
2022-12-14T11:07:07.194Z,9.52
2022-12-14T11:09:36.891Z,9.27
2022-12-14T11:12:16.169Z,9.40
2022-12-14T11:14:56.107Z,9.34
2022-12-14T11:17:37.766Z,9.47
2022-12-14T11:20:23.255Z,9.30
2022-12-14T11:22:54.983Z,9.42
2022-12-14T11:25:37.643Z,9.06
2022-12-14T11:28:35.985Z,9.14
2022-12-14T11:31:07.695Z,9.33
2022-12-14T11:33:41.151Z,9.49
2022-12-14T11:36:10.896Z,9.61
2022-12-14T11:38:39.182Z,9.72
2022-12-14T11:41:11.741Z,9.85
2022-12-14T11:43:41.918Z,9.88
2022-12-14T11:46:10.414Z,9.75
2022-12-14T11:48:49.072Z,9.66
2022-12-14T11:51:17.401Z,9.94
2022-12-14T11:54:02.431Z,10.10
2022-12-14T11:56:30.809Z,10.21
2022-12-14T11:59:00.651Z,10.21
2022-12-14T12:01:29.182Z,10.22
2022-12-14T12:04:00.880Z,10.03
2022-12-14T12:06:31.104Z,10.09
2022-12-14T12:09:02.168Z,10.21
2022-12-14T12:11:33.937Z,10.29
2022-12-14T12:14:26.517Z,10.42
2022-12-14T12:16:55.097Z,10.54
2022-12-14T12:19:31.220Z,10.46
2022-12-14T12:22:02.519Z,10.48
2022-12-14T12:24:41.634Z,10.34
2022-12-14T12:27:19.549Z,10.23
2022-12-14T12:29:55.378Z,10.14
2022-12-14T12:32:28.063Z,9.79
2022-12-14T12:35:11.275Z,9.34
2022-12-14T12:37:46.060Z,9.24
2022-12-14T12:40:25.587Z,9.59
2022-12-14T12:43:00.155Z,9.58
2022-12-14T12:45:35.736Z,9.53
2022-12-14T12:48:11.311Z,9.66
2022-12-14T12:50:49.777Z,9.48
2022-12-14T12:53:23.500Z,9.46
2022-12-14T12:55:55.064Z,9.63
2022-12-14T12:58:27.806Z,9.72
2022-12-14T13:01:03.604Z,9.82
2022-12-14T13:03:38.874Z,9.52
2022-12-14T13:06:17.202Z,9.46
2022-12-14T13:08:49.759Z,9.79
2022-12-14T13:11:26.461Z,9.94
2022-12-14T13:14:00.993Z,10.01
2022-12-14T13:16:34.809Z,10.19
2022-12-14T13:19:48.142Z,10.35
2022-12-14T13:22:05.863Z,10.29
2022-12-14T13:24:37.335Z,9.78
2022-12-14T13:27:48.677Z,9.27
2022-12-14T13:30:27.083Z,9.74
2022-12-14T13:33:31.003Z,10.02
2022-12-14T13:36:31.106Z,10.16
2022-12-14T13:39:30.831Z,10.48
2022-12-14T13:42:08.373Z,10.61
2022-12-14T13:44:52.687Z,10.65
2022-12-14T13:47:23.976Z,10.65
2022-12-14T13:50:34.253Z,10.77
2022-12-14T13:52:48.585Z,10.72
2022-12-14T13:55:36.754Z,10.84
2022-12-14T13:58:18.777Z,10.34
2022-12-14T14:00:59.929Z,10.53
2022-12-14T14:03:53.713Z,10.68
2022-12-14T14:06:39.013Z,10.68
2022-12-14T14:10:00.354Z,10.47
2022-12-14T14:12:44.897Z,10.18
2022-12-14T14:15:31.475Z,9.87
2022-12-14T14:18:14.401Z,9.56
2022-12-14T14:20:46.841Z,9.59
2022-12-14T14:23:37.035Z,9.64
2022-12-14T14:26:23.641Z,9.85
2022-12-14T14:29:27.295Z,10.02
2022-12-14T14:31:59.784Z,9.97
2022-12-14T14:34:40.737Z,9.91
2022-12-14T14:37:25.185Z,9.83
2022-12-14T14:40:16.613Z,9.58
2022-12-14T14:42:54.169Z,9.51
2022-12-14T14:45:32.171Z,9.53
2022-12-14T14:48:03.351Z,9.39
2022-12-14T14:50:36.844Z,9.30
2022-12-14T14:53:30.713Z,9.20
2022-12-14T14:56:07.555Z,9.13
2022-12-14T14:58:38.773Z,9.04
2022-12-14T15:01:25.650Z,8.93
2022-12-14T15:03:58.638Z,8.76
2022-12-14T15:06:30.283Z,8.65
2022-12-14T15:09:06.041Z,8.48
2022-12-14T15:11:45.983Z,8.31
2022-12-14T15:14:31.544Z,7.90
2022-12-14T15:17:04.054Z,7.76
2022-12-14T15:19:36.023Z,7.69
2022-12-14T15:22:07.590Z,7.53
2022-12-14T15:24:42.362Z,7.46
2022-12-14T15:27:25.606Z,7.37
2022-12-14T15:29:54.547Z,7.30
2022-12-14T15:32:25.358Z,7.25
2022-12-14T15:34:58.240Z,7.13
2022-12-14T15:37:31.020Z,6.94
2022-12-14T15:40:07.954Z,6.98
2022-12-14T15:42:47.977Z,6.81
2022-12-14T15:45:20.049Z,6.60
2022-12-14T15:47:49.234Z,6.34
2022-12-14T15:50:29.641Z,5.96
2022-12-14T15:53:02.621Z,5.90
2022-12-14T15:55:36.998Z,5.83
2022-12-14T15:58:16.937Z,5.96
2022-12-14T16:00:49.188Z,5.82
2022-12-14T16:03:27.488Z,5.80
2022-12-14T16:05:56.725Z,5.68
2022-12-14T16:08:26.273Z,5.48
2022-12-14T16:10:57.378Z,5.30
2022-12-14T16:13:32.248Z,5.27
2022-12-14T16:16:09.219Z,5.27
2022-12-14T16:18:41.138Z,5.31
2022-12-14T16:21:28.986Z,5.04
2022-12-14T16:23:57.878Z,4.92
2022-12-14T16:26:28.212Z,4.85
2022-12-14T16:29:23.049Z,4.86
2022-12-14T16:31:51.666Z,4.88
2022-12-14T16:34:23.520Z,4.82
2022-12-14T16:37:23.205Z,4.70
2022-12-14T16:39:46.839Z,4.77
2022-12-14T16:42:20.639Z,4.73
2022-12-14T16:44:53.834Z,4.70
2022-12-14T16:47:31.766Z,4.73
2022-12-14T16:50:00.649Z,4.68
2022-12-14T16:52:31.201Z,4.50
2022-12-14T16:55:11.872Z,4.42
2022-12-14T16:57:43.427Z,4.41
2022-12-14T17:00:24.818Z,4.30
2022-12-14T17:03:00.212Z,4.22
2022-12-14T17:05:34.428Z,4.18
2022-12-14T17:08:03.193Z,4.29
2022-12-14T17:10:32.716Z,4.24
2022-12-14T17:13:03.225Z,3.99
2022-12-14T17:15:34.764Z,4.14
2022-12-14T17:18:05.681Z,3.95
2022-12-14T17:20:37.021Z,3.81
2022-12-14T17:23:09.200Z,3.64
2022-12-14T17:25:37.618Z,3.45
2022-12-14T17:28:18.448Z,3.36
2022-12-14T17:30:48.627Z,3.30
2022-12-14T17:33:17.154Z,3.21
2022-12-14T17:35:45.799Z,2.85
2022-12-14T17:38:16.153Z,2.83
2022-12-14T17:40:46.521Z,3.03
2022-12-14T17:43:27.232Z,3.19
2022-12-14T17:46:01.063Z,3.36
2022-12-14T17:48:30.304Z,3.42
2022-12-14T17:50:58.599Z,3.53
2022-12-14T17:53:30.930Z,3.51
2022-12-14T17:55:59.608Z,3.72
2022-12-14T17:58:27.877Z,3.55
2022-12-14T18:01:04.050Z,3.57
2022-12-14T18:03:36.225Z,3.70
2022-12-14T18:06:05.691Z,3.58
2022-12-14T18:08:33.988Z,3.94
2022-12-14T18:11:11.871Z,4.04
2022-12-14T18:13:42.625Z,3.87
2022-12-14T18:16:17.999Z,3.65
2022-12-14T18:18:46.768Z,3.47
2022-12-14T18:21:20.352Z,3.51
2022-12-14T18:23:50.096Z,3.32
2022-12-14T18:26:21.121Z,3.24
2022-12-14T18:28:50.219Z,3.20
2022-12-14T18:31:28.437Z,3.15
2022-12-14T18:33:56.830Z,3.11
2022-12-14T18:36:25.402Z,3.19
2022-12-14T18:38:53.882Z,3.24
2022-12-14T18:41:24.698Z,3.25
2022-12-14T18:43:54.333Z,3.23
2022-12-14T18:46:24.930Z,3.20
2022-12-14T18:48:53.674Z,3.23
2022-12-14T18:51:26.203Z,3.26
2022-12-14T18:53:56.152Z,3.30
2022-12-14T18:56:28.336Z,3.40
2022-12-14T18:58:56.800Z,3.55
2022-12-14T19:01:26.547Z,3.66
2022-12-14T19:03:55.309Z,3.71
2022-12-14T19:09:14.947Z,3.83
2022-12-14T19:11:44.423Z,3.86
2022-12-14T19:14:13.414Z,3.84
2022-12-14T19:16:43.135Z,3.91
2022-12-14T19:19:11.482Z,3.92
2022-12-14T19:21:39.759Z,3.95
2022-12-14T19:24:09.567Z,3.56
2022-12-14T19:26:39.496Z,3.54
2022-12-14T19:29:08.151Z,3.59
2022-12-14T19:31:36.803Z,3.60
2022-12-14T19:34:06.866Z,3.80
2022-12-14T19:36:35.147Z,3.89
2022-12-14T19:39:03.693Z,3.93
2022-12-14T19:41:32.326Z,3.18
2022-12-14T19:44:00.668Z,3.74
2022-12-14T19:46:29.379Z,3.74
2022-12-14T19:48:59.661Z,3.64
2022-12-14T19:51:29.515Z,3.60
2022-12-14T19:53:57.822Z,3.48
2022-12-14T19:56:26.231Z,3.35
2022-12-14T19:58:57.954Z,3.35
2022-12-14T20:01:26.365Z,2.65
2022-12-14T20:03:54.963Z,3.03
2022-12-14T20:06:23.519Z,2.62
2022-12-14T20:08:53.122Z,2.33
2022-12-14T20:11:21.476Z,2.33
2022-12-14T20:13:56.261Z,2.40
2022-12-14T20:16:27.381Z,2.44
2022-12-14T20:18:56.548Z,2.44
2022-12-14T20:21:29.167Z,2.50
2022-12-14T20:24:00.042Z,2.39
2022-12-14T20:26:30.017Z,2.54
2022-12-14T20:29:04.953Z,2.52
2022-12-14T20:31:33.816Z,2.52
2022-12-14T20:34:03.291Z,2.50
2022-12-14T20:36:33.725Z,2.50
2022-12-14T20:39:03.292Z,2.67
2022-12-14T20:41:32.666Z,2.78
2022-12-14T20:44:03.044Z,2.66
2022-12-14T20:46:34.186Z,2.77
2022-12-14T20:49:05.483Z,2.93
2022-12-14T20:51:36.759Z,3.02
2022-12-14T20:54:08.713Z,3.15
2022-12-14T20:56:37.211Z,3.17
2022-12-14T20:59:06.654Z,3.03
2022-12-14T21:01:37.204Z,3.22
2022-12-14T21:04:06.906Z,3.34
2022-12-14T21:06:39.492Z,3.49
2022-12-14T21:09:13.017Z,3.62
2022-12-14T21:12:02.915Z,3.77
2022-12-14T21:14:33.996Z,3.75
2022-12-14T21:17:03.849Z,3.89
2022-12-14T21:19:33.250Z,3.80
2022-12-14T21:22:01.547Z,3.77
2022-12-14T21:27:23.804Z,3.92
2022-12-14T21:29:53.068Z,4.04
2022-12-14T21:32:22.822Z,4.07
2022-12-14T21:34:51.613Z,4.07
2022-12-14T21:37:20.787Z,4.07
2022-12-14T21:39:55.277Z,4.12
2022-12-14T21:42:24.314Z,4.15
2022-12-14T21:44:55.163Z,4.19
2022-12-14T21:47:26.521Z,4.07
2022-12-14T21:49:55.172Z,4.27
2022-12-14T21:52:26.754Z,4.32
2022-12-14T21:54:58.556Z,4.37
2022-12-14T21:57:50.419Z,4.35
2022-12-14T22:00:20.194Z,4.43
2022-12-14T22:02:48.929Z,4.23
2022-12-14T22:05:17.516Z,4.36
2022-12-14T22:07:46.743Z,4.31
2022-12-14T22:10:22.875Z,4.30
2022-12-14T22:12:53.111Z,4.30
2022-12-14T22:15:21.449Z,4.29
2022-12-14T22:17:51.739Z,4.09
2022-12-14T22:20:20.124Z,4.21
2022-12-14T22:22:48.423Z,4.11
2022-12-14T22:25:18.276Z,3.93
2022-12-14T22:27:49.555Z,3.53
2022-12-14T22:30:19.011Z,3.90
2022-12-14T22:32:47.821Z,3.03
2022-12-14T22:35:16.378Z,3.74
2022-12-14T22:37:44.644Z,3.68
2022-12-14T22:40:14.181Z,4.02
2022-12-14T22:42:43.889Z,4.19
2022-12-14T22:45:12.431Z,4.27
2022-12-14T22:47:40.662Z,4.39
2022-12-14T22:50:10.266Z,4.39
2022-12-14T22:52:38.580Z,4.35
2022-12-14T22:55:07.900Z,4.38
2022-12-14T22:57:41.579Z,4.37
2022-12-14T23:00:16.523Z,4.39
2022-12-14T23:02:48.323Z,4.41
2022-12-14T23:05:17.670Z,4.38
2022-12-14T23:07:45.928Z,4.35
2022-12-14T23:10:31.773Z,4.39
2022-12-14T23:13:17.300Z,4.27
2022-12-14T23:16:04.517Z,4.10
2022-12-14T23:18:50.480Z,3.95
2022-12-14T23:21:36.603Z,3.76
2022-12-14T23:24:24.557Z,3.75
2022-12-14T23:27:10.335Z,3.63
2022-12-14T23:29:56.269Z,3.60
2022-12-14T23:32:43.558Z,3.73
2022-12-14T23:35:29.233Z,3.78
2022-12-14T23:38:14.890Z,3.70
2022-12-14T23:41:00.775Z,3.69
2022-12-14T23:43:46.437Z,3.66
2022-12-14T23:46:32.476Z,3.58
2022-12-14T23:49:19.645Z,3.48
2022-12-14T23:52:05.596Z,3.49
2022-12-14T23:54:51.760Z,3.46
2022-12-14T23:57:37.767Z,3.50
